Vilnius International Airport

EYVI · Vilnius, 立陶宛

罗盘
风向 的 维尔纽斯国际机场 1/19
风: 1 kt, 1 beaufort

1 kt

改变
0 ft 1.000 2.000 3.000 4.000 5.000
CAVOK
METAR EYVI 152120Z VRB01KT CAVOK 03/M01 Q1002 NOSIG

METAR 维尔纽斯国际机场 - EYVI/VNO

维尔纽斯国际机场是,立陶宛中的大型机场。 该机场位于纬度54,63410和经度25,28580。 该机场有一条跑道: 1/19. 本场的ICAO机场代码为EYVI。 该机场的IATA代码为VNO。 机场在Vilnius FIR中。

该航空气象观测是针对维尔纽斯国际机场在2024年4月16日 00:20, 当地时间进行的。

机场观察

可变方向的风很小或没有风。

天气为CAVOK。这意味着在5.000 ft或MSA(最低安全高度)以下(以较高者为准)以下没有云。这也意味着没有观测到积雨云或高耸的积云,可见度为10 km 或者更多或更高。此外,不会有雾,降雨或其他重要天气。

温度和风寒是3 °C。 露点为-1 °C,相对湿度为75%。 海平面上的气压为1002 hPa (QNH)。

白天

今天,太阳从06:14升起,在20:22降落。 这适用于维尔纽斯国际机场,世界夏令时可能有所不同。 当地时间与世界标准时间之间的时差为+3 小时。 夏令时目前正在进行中。

公司介绍

在这个机场,你可以找到飞行学校。 这个机场上的公司有ATO Pilotu Mokykla, Baltic Aviation Academy, Baltic Flight Academy 和 UAB Sabenavita。

体会

到Vliegles.nl去找飞行课程,跳伞和其他飞行体验。 浏览页面,了解维尔纽斯国际机场附近所有可用的活动。 你也可以使用搜索功能来寻找你所在地附近的特定飞行课程、跳伞或其他飞行体验。

跑道

Id 标题 侧风 逆风 侧风 %
1/19 022°-202° 37 %

逆风成分最大的方向会被突出显示,并用于横风计算。 这并不一定意味着这个方向在使用。

温度 & 天气

温度 3 °C
露点 -1 °C
相对湿度 75%
Kp-index 1 (0-9)

白天

日出
06:14 (5:14)
中午
13:18
日落
20:22

小工具

你想在你的网站上有一个关于维尔纽斯国际机场的当前航空天气(METAR)的小部件吗?

显示HTML代码
报告变更